»·PEaware :: N41598 KAVX-KSAN

N41598 :: KAVX-KSAN

FLIGHT INFORMATION

Flight Status: Arrived
Operator: Privately registered:
United States
More flights under this callsign
Pilot: Alex C. (14758)
Aircraft: BEECH AIRCRAFT BEECH AIRLINER
(B190)
More flights by this aircraft type
Origin: KAVX Catalina
United States
Destination: KSAN San Diego Intl-Lindbergh
United States
More flights between these airports :: More routes between these airports
Route: +SXC V208 LAX118 CARDI MZB320 MZB
File this flight plan on PilotEdge
Remarks: I-8 Rating
Altitude:
(Current/Filed)
9,000ft
Speed:
(Current/Filed)
240kts
Departed: 09-Feb-18 03:53 PM
Arrived: 09-Feb-18 04:46 PM
Distance/Time
Traveled:
74nm/0:53
Distance/Time
To Go:
Arrived

Flight Plot

Page will automatically refresh every two minutes.


Map Options




Map Legend


Flown Route
Filed Route
Departure Airport
Arrival Airport
Navaid (VOR, NDB)
Fix

Horizontal Profiles

Position Reports

Time Latitude Longitude Heading Altitude Ground
Speed
09-Feb-18 15:54 33.403112 -118.415849 33 1607ft 0kts
09-Feb-18 15:55 33.403116 -118.415846 33 1607ft 0kts
09-Feb-18 15:56 33.404038 -118.415058 23 1607ft 9kts
09-Feb-18 15:57 33.405857 -118.413613 55 1607ft 11kts
09-Feb-18 15:58 33.407340 -118.411835 231 1607ft 0kts
09-Feb-18 15:59 33.402071 -118.420818 234 1696ft 132kts
09-Feb-18 16:00 33.379422 -118.451782 189 3514ft 171kts
09-Feb-18 16:01 33.361976 -118.422208 78 5343ft 185kts
09-Feb-18 16:02 33.365075 -118.374359 90 7073ft 191kts
09-Feb-18 16:03 33.361346 -118.321254 95 8784ft 197kts
09-Feb-18 16:04 33.353588 -118.256905 97 8984ft 253kts
09-Feb-18 16:06 33.344737 -118.189137 97 8972ft 258kts
09-Feb-18 16:07 33.335635 -118.120299 97 8971ft 260kts
09-Feb-18 16:08 33.326430 -118.051233 97 8969ft 261kts
09-Feb-18 16:09 33.317503 -117.984113 97 8967ft 261kts
09-Feb-18 16:10 33.309042 -117.920270 97 9038ft 260kts
09-Feb-18 16:11 33.300263 -117.855016 98 9034ft 261kts
09-Feb-18 16:12 33.291836 -117.793077 98 9033ft 261kts
09-Feb-18 16:13 33.283058 -117.730306 99 9034ft 262kts
09-Feb-18 16:14 33.273550 -117.666937 98 9034ft 262kts
09-Feb-18 16:15 33.263992 -117.603352 99 9032ft 262kts
09-Feb-18 16:16 33.234311 -117.545084 133 9024ft 262kts
09-Feb-18 16:17 33.195765 -117.496444 133 9022ft 262kts
09-Feb-18 16:18 33.158090 -117.449241 133 9020ft 263kts
09-Feb-18 16:19 33.112365 -117.419730 188 9041ft 255kts
09-Feb-18 16:20 33.059972 -117.395844 153 8786ft 257kts
09-Feb-18 16:21 33.011288 -117.366071 153 8019ft 252kts
09-Feb-18 16:22 32.964881 -117.337406 153 7264ft 245kts
09-Feb-18 16:23 32.920474 -117.309931 154 7017ft 238kts
09-Feb-18 16:24 32.891092 -117.277506 113 6728ft 239kts
09-Feb-18 16:25 32.878303 -117.239054 112 6201ft 238kts
09-Feb-18 16:26 32.864980 -117.197962 112 5629ft 232kts
09-Feb-18 16:27 32.852013 -117.157505 112 5055ft 226kts
09-Feb-18 16:28 32.839580 -117.118299 112 4984ft 222kts
09-Feb-18 16:29 32.827648 -117.080754 111 4984ft 218kts
09-Feb-18 16:30 32.816358 -117.045435 111 4989ft 223kts
09-Feb-18 16:31 32.803631 -117.006188 112 4988ft 229kts
09-Feb-18 16:32 32.789266 -116.962545 112 4987ft 229kts
09-Feb-18 16:33 32.772697 -116.913026 112 4986ft 229kts
09-Feb-18 16:34 32.754056 -116.857863 112 4981ft 229kts
09-Feb-18 16:35 32.730948 -116.808084 160 4976ft 221kts
09-Feb-18 16:36 32.695452 -116.831684 231 4967ft 193kts
09-Feb-18 16:37 32.681720 -116.871134 261 4377ft 169kts
09-Feb-18 16:38 32.677496 -116.903924 262 4199ft 138kts
09-Feb-18 16:39 32.674196 -116.930112 262 3990ft 150kts
09-Feb-18 16:40 32.676366 -116.953295 285 3692ft 138kts
09-Feb-18 16:41 32.681621 -116.974630 285 3632ft 132kts
09-Feb-18 16:42 32.687015 -116.996614 285 3282ft 134kts
09-Feb-18 16:43 32.691834 -117.016326 284 2878ft 126kts
09-Feb-18 16:44 32.696238 -117.034493 283 2658ft 110kts
09-Feb-18 16:45 32.700391 -117.051741 283 2439ft 109kts
09-Feb-18 16:46 32.704424 -117.068403 283 2090ft 110kts
09-Feb-18 16:47 32.708651 -117.085894 283 1855ft 109kts
09-Feb-18 16:48 32.712887 -117.103440 283 1550ft 108kts
09-Feb-18 16:49 32.717132 -117.121168 282 1186ft 108kts
09-Feb-18 16:50 32.721536 -117.140013 283 849ft 108kts
09-Feb-18 16:51 32.726559 -117.160735 282 456ft 107kts
09-Feb-18 16:52 32.731737 -117.181887 282 30ft 102kts
09-Feb-18 16:53 32.733967 -117.190745 320 22ft 15kts
09-Feb-18 16:54 32.734353 -117.188382 99 22ft 17kts
09-Feb-18 16:55 32.733728 -117.185644 107 22ft 20kts
09-Feb-18 16:56 32.734524 -117.183475 54 22ft 6kts
09-Feb-18 16:57 32.734586 -117.183370 54 22ft 0kts
09-Feb-18 16:58 32.734586 -117.183370 54 22ft 0kts
09-Feb-18 16:59 32.734586 -117.183370 54 22ft 0kts
09-Feb-18 17:00 32.734586 -117.183370 54 22ft 0kts
09-Feb-18 17:01 32.734586 -117.183370 54 22ft 0kts
09-Feb-18 17:02 32.734586 -117.183370 54 22ft 0kts
09-Feb-18 17:03 32.734586 -117.183370 54 22ft 0kts
09-Feb-18 17:04 32.734586 -117.183370 54 22ft 0kts
09-Feb-18 17:05 32.734586 -117.183370 54 22ft 0kts
09-Feb-18 17:06 32.734586 -117.183370 54 22ft 0kts

Navigation Log

Ident Type
1. KAVX Airport
2. SXC Navaid
3. CARDI Fix
4. MZB Navaid
5. KSAN Airport